Le Grand Echaillon - Léoncel (26) - Violet Court

Date : 20/09/2015
Distance : 5,100 km

Place Nom Licence Catégorie Club Temps min/km CN à J-60 Points Différence Nouveau CN
1 GONET Victor 22514 H14 2607RA 1:07:44 13'16 4102 6240 +2138 4308
2 MOUCHETTE Laurent 2538 H35 5703LO 1:13:58 14'30 4839 5714 +875 4938
3 BODY Mathilde 10184 D20 7305RA 1:18:42 15'25 5222 5370 +148 5347
4 GINTZBURGER Colas 25057 H18 7407RA 1:21:05 15'53 4602 5213 +611 4662
5 FAIVRE Julie 5310 D40 2610RA 1:21:11 15'55 5530 5206 -324 5009
6 ARIAGNO Veronique 10320 D45 6906RA 1:27:46 17'12 4296 4816 +520 4512
7 CORBIN Emma 20916 D18 2604RA 1:28:00 17'15 4509 4803 +294 4688
8 MAZARD Jean-Pierre 10503 H60 6911RA 1:29:57 17'38 4086 4699 +613 4267
9 SILVESTRE Eric 13409 H45 7305RA 1:31:44 17'59 4920 4607 -313 4764
10 TOULIER Francois 13294 H45 6913RA 1:33:03 18'14 5212 4542 -670 5413
11 DECROIX Veronique 2819 D45 7407RA 1:33:16 18'17 4513 4532 +19 4546
12 LELOUP Herve-Philipp 7303 H50 6906RA 1:34:06 18'27 4177 4492 +315 4339
13 POCACHARD Jérôme 24842 H40 6911RA 1:36:55 19'00 3922 4361 +439 4173
14 BASSET Olivier 3818 H50 6911RA 1:37:05 19'02 5540 4354 -1186 5324
15 VANDEWEEGHE Vincent 7877 H50 0111RA 1:37:19 19'04 4343 0
16 BOURGANEL Vincent 22429 H45 6913RA 1:37:43 19'09 4848 4325 -523 4848
17 MERCIER Bruno 71 H55 2604RA 1:38:54 19'23 4977 4274 -703 5186
18 RADISSON Bruno 18078 H50 6913RA 1:38:55 19'23 4273 0
19 PELLETIER Genevieve 10502 D50 6911RA 1:39:18 19'28 4691 4256 -435 4698
20 MINOT Yoann 11418 H21 6906RA 1:40:04 19'37 4350 4224 -126 4385
21 VALETTE Marion 10430 D18 6913RA 1:42:05 20'00 4513 4140 -373 4835
22 BLECIC Hélène 26837 D20 2604RA 1:43:02 20'12 0 4102 3938
23 ROCHE Jonathan 15417 H18 3810RA 1:44:45 20'32 4292 4035 -257 4438
24 DUDOIGNON Jocelyne 17952 D45 2604RA 1:46:11 20'49 4249 3980 -269 4198
25 GENNARO Leslie 20863 D18 3810RA 1:46:54 20'57 4260 3954 -306 4198
26 FREMONT Johanne 18637 D45 7407RA 1:48:26 21'15 4566 3898 -668 4566
27 EGLIN Guillaume 26850 H40 2604RA 1:51:58 21'57 3689 3775 +86 3878
28 CLERC Caroline 10493 D40 7305RA 1:56:58 22'56 4118 3613 -505 4333
29 BUFFLIER Marie-Pierre 25239 D45 2604RA 1:58:06 23'09 3579 0
30 THOMASSIN J-Luc 260 H45 6906RA 2:06:09 24'44 3552 3350 -202 3394
31 MINOT Bernard 11837 H60 6906RA 2:07:39 25'01 3890 3311 -579 3839
32 ARIAGNO Didier 8530 H50 2605RA 2:12:58 26'04 3179 0
33 PORNET Patrick 7388 H55 3810RA 2:15:22 26'32 2764 3122 +358 2985
34 GENNARO Beatrice 20862 D45 3810RA 2:17:24 26'56 3145 3076 -69 3381
35 CHAVEE Philippe 13965 H45 6911RA 2:18:13 27'06 3500 3058 -442 3500
36 VERITE Laurent 12858 H50 0703RA 2:21:50 27'48 3270 2980 -290 3218
37 VILLEDIEU J-Luc 15092 H55 4201RA 2:22:32 27'56 3388 2965 -423 3447
38 PELLOUX-PRAYER Gautier 30441 H21 3811RA 2:28:54 29'11 3877 2839 -1038 3370
BASSET Juliette 12398 D18 6911RA pm None 5814 0 5832
DUDOIGNON Marine 17953 D16 2604RA pm None 3867 0 4121
BORNARD Julie 9402 D20 7305RA pm None 5285 0 5206
LEVESY Salomé 23127 D18 3810RA pm None 4412 0 4441
LEVESY Eric 20491 H50 3810RA pm None 3873 0 4092
GINTZBURGER François 25056 H45 7407RA pm None 3038 0 2982
VALETTE Isabelle 2270 D45 6913RA pm None 2935 0 2732
AMORICH Bruno 579 H55 3810RA pm None 3089 0 3089
GAUDRILLIER Laurence 19565 D40 7305RA pm None 4506 0 4478
ROCHE Sandrine 10684 D45 3810RA pm None 3566 0 3649
POINTEAU Fabien 4901 H45 2604RA pm None 4021 0 4193